Time;durP1;ratioP1;P1;durP2;ratioP2;P2;SDS_P1;SDS_P2;PMS_P1;PMS_P2;Temp;Humidity;BMP_temperature;BMP_pressure;BME280_temperature;BME280_humidity;BME280_pressure;Samples;Min_cycle;Max_cycle;Signal;HPM_P1;HPM_P2
2021/07/22 00:02:13;;;;;;;11.63;10.63;;;16.30;96.60;;;;;;4996016;28;20204;-91
2021/07/22 00:04:39;;;;;;;14.60;10.47;;;16.40;96.60;;;;;;4996058;28;20177;-90
2021/07/22 00:07:04;;;;;;;12.40;11.27;;;16.60;96.60;;;;;;4978447;28;20251;-91
2021/07/22 00:09:30;;;;;;;11.90;10.80;;;16.60;96.20;;;;;;4995972;28;20173;-90
2021/07/22 00:11:56;;;;;;;12.67;11.07;;;16.50;96.20;;;;;;4978388;28;20533;-90
2021/07/22 00:14:21;;;;;;;13.37;10.43;;;16.60;96.30;;;;;;4995838;28;20205;-90
2021/07/22 00:16:47;;;;;;;13.47;12.03;;;16.50;96.10;;;;;;4978472;28;20512;-91
2021/07/22 00:19:13;;;;;;;12.40;11.20;;;16.60;96.00;;;;;;4995777;28;20236;-90
2021/07/22 00:21:39;;;;;;;12.53;11.23;;;16.60;95.70;;;;;;4995768;28;20177;-90
2021/07/22 00:24:05;;;;;;;12.90;11.67;;;16.70;95.40;;;;;;4995679;28;20776;-91
2021/07/22 00:26:30;;;;;;;12.30;11.10;;;16.70;95.60;;;;;;4978224;28;20260;-90
2021/07/22 00:28:59;;;;;;;12.20;10.87;;;16.70;95.40;;;;;;4978334;28;20421;-90
2021/07/22 00:31:25;;;;;;;13.57;12.30;;;16.90;93.70;;;;;;4995562;28;20169;-90
2021/07/22 00:33:50;;;;;;;12.30;11.03;;;16.80;95.00;;;;;;4995519;28;20530;-91
2021/07/22 00:36:16;;;;;;;12.03;11.00;;;16.90;94.90;;;;;;4978085;28;20205;-90
2021/07/22 00:38:42;;;;;;;13.50;12.30;;;16.90;95.10;;;;;;4977918;28;20181;-90
2021/07/22 00:41:11;;;;;;;13.90;12.50;;;18.90;96.60;;;;;;4996407;28;20813;-90
2021/07/22 00:43:39;;;;;;;13.03;11.83;;;16.80;94.90;;;;;;4978127;28;20421;-90
2021/07/22 00:46:05;;;;;;;13.10;12.00;;;19.50;97.30;;;;;;4995381;28;20456;-90
2021/07/22 00:48:31;;;;;;;13.53;12.07;;;16.90;95.10;;;;;;4994910;28;20479;-92
2021/07/22 00:50:56;;;;;;;11.20;10.30;;;17.00;94.60;;;;;;4977669;28;20470;-89
2021/07/22 00:53:22;;;;;;;13.77;12.37;;;17.00;94.60;;;;;;4994767;28;20287;-89
2021/07/22 00:55:47;;;;;;;12.60;11.50;;;17.10;94.30;;;;;;4977924;28;20176;-90
2021/07/22 00:58:13;;;;;;;12.03;10.93;;;17.10;94.10;;;;;;4995116;28;20572;-90
2021/07/22 01:00:38;;;;;;;12.53;10.60;;;17.20;93.40;;;;;;4979395;28;20165;-92
2021/07/22 01:03:04;;;;;;;12.57;11.33;;;17.20;93.40;;;;;;4985267;28;20280;-89
2021/07/22 01:05:30;;;;;;;15.00;12.97;;;17.30;93.40;;;;;;5003514;28;20517;-90
2021/07/22 01:07:55;;;;;;;13.10;11.90;;;17.30;93.10;;;;;;4995676;28;20417;-89
2021/07/22 01:10:21;;;;;;;12.20;11.10;;;17.30;93.00;;;;;;4995127;28;20256;-89
2021/07/22 01:12:47;;;;;;;12.03;10.93;;;17.30;92.70;;;;;;4994972;28;20256;-90
2021/07/22 01:15:12;;;;;;;11.93;10.83;;;17.40;92.60;;;;;;4994601;28;20248;-90
2021/07/22 01:17:46;;;;;;;13.20;11.80;;;17.20;92.30;;;;;;4994753;28;20219;-90
2021/07/22 01:20:20;;;;;;;13.83;12.43;;;17.30;92.40;;;;;;4994709;28;20179;-90
2021/07/22 01:22:47;;;;;;;14.10;12.60;;;17.90;91.60;;;;;;4997160;28;20847;-88
2021/07/22 01:25:13;;;;;;;14.43;13.10;;;17.20;92.80;;;;;;4997413;28;20420;-91
2021/07/22 01:27:40;;;;;;;13.70;12.33;;;15.70;92.80;;;;;;4978837;28;20496;-90
2021/07/22 01:30:06;;;;;;;13.40;12.00;;;17.00;93.70;;;;;;4994642;28;20419;-90
2021/07/22 01:32:32;;;;;;;12.33;11.23;;;17.00;93.70;;;;;;4994359;28;20451;-90
2021/07/22 01:34:57;;;;;;;14.50;13.00;;;17.20;93.70;;;;;;4994346;28;20475;-90
2021/07/22 01:37:23;;;;;;;14.70;12.73;;;17.00;93.50;;;;;;4994191;28;20529;-90
2021/07/22 01:39:49;;;;;;;12.93;11.73;;;17.10;93.40;;;;;;4994269;28;20424;-90
2021/07/22 01:42:15;;;;;;;12.03;10.80;;;17.10;93.60;;;;;;4976819;28;20180;-91
2021/07/22 01:44:40;;;;;;;13.53;12.13;;;17.00;93.20;;;;;;4976855;28;20432;-90
2021/07/22 01:47:06;;;;;;;13.33;11.77;;;16.90;93.70;;;;;;4994226;28;20181;-90
2021/07/22 01:49:32;;;;;;;15.10;13.67;;;16.80;93.70;;;;;;4994239;28;20177;-90
2021/07/22 01:52:02;;;;;;;13.10;11.70;;;16.80;94.00;;;;;;4976694;28;20251;-90
2021/07/22 01:54:28;;;;;;;12.73;11.63;;;16.80;94.00;;;;;;4976627;28;20523;-91
2021/07/22 01:56:56;;;;;;;13.40;12.10;;;16.70;94.20;;;;;;4994085;28;20464;-90
2021/07/22 01:59:22;;;;;;;12.83;11.43;;;15.50;94.00;;;;;;4975984;28;20936;-90
2021/07/22 02:01:47;;;;;;;13.43;12.03;;;16.40;94.80;;;;;;4976518;28;20420;-90
2021/07/22 02:04:13;;;;;;;13.47;12.23;;;16.30;95.10;;;;;;4993896;28;20177;-90
2021/07/22 02:06:39;;;;;;;13.90;12.47;;;16.50;95.30;;;;;;4993703;28;20223;-90
2021/07/22 02:09:05;;;;;;;13.57;12.27;;;16.30;95.30;;;;;;4976250;28;20211;-90
2021/07/22 02:11:30;;;;;;;14.83;13.33;;;16.30;95.40;;;;;;4993765;28;20428;-90
2021/07/22 02:13:56;;;;;;;14.70;13.17;;;16.30;95.60;;;;;;4993690;28;20727;-90
2021/07/22 02:16:22;;;;;;;13.40;12.20;;;16.30;95.80;;;;;;4993826;28;20624;-91
2021/07/22 02:18:48;;;;;;;13.35;11.15;;;16.30;96.00;;;;;;4288000;28;10000590;-91
2021/07/22 02:21:14;;;;;;;16.80;11.87;;;15.80;96.10;;;;;;4991137;28;20165;-90
2021/07/22 02:23:39;;;;;;;14.43;12.97;;;15.70;97.00;;;;;;4991594;28;20471;-90
2021/07/22 02:26:06;;;;;;;13.70;12.30;;;16.00;97.00;;;;;;4991567;28;20649;-91
2021/07/22 02:28:32;;;;;;;14.40;12.17;;;18.50;99.50;;;;;;4974025;28;20860;-90
2021/07/22 02:30:58;;;;;;;12.77;11.40;;;16.00;97.40;;;;;;4991460;28;20466;-89
2021/07/22 02:33:24;;;;;;;14.10;12.60;;;18.10;99.50;;;;;;4973881;28;20522;-90
2021/07/22 02:35:49;;;;;;;14.17;12.87;;;15.90;97.50;;;;;;4973991;28;20420;-89
2021/07/22 02:38:15;;;;;;;14.33;13.03;;;15.80;98.00;;;;;;4991257;28;20169;-90
2021/07/22 02:40:40;;;;;;;15.03;12.40;;;15.80;99.00;;;;;;4991280;28;20173;-90
2021/07/22 02:43:06;;;;;;;13.60;12.30;;;15.60;99.90;;;;;;4973517;28;20196;-89
2021/07/22 02:45:32;;;;;;;14.20;12.70;;;15.50;99.90;;;;;;4990881;28;20260;-90
2021/07/22 02:47:58;;;;;;;14.80;13.30;;;;;;;;;;4973470;28;20177;-89
2021/07/22 02:50:24;;;;;;;12.87;11.63;;;;;;;;;;4991237;28;20946;-90
2021/07/22 02:52:49;;;;;;;14.33;12.90;;;15.50;99.90;;;;;;4973713;28;20460;-90
2021/07/22 02:55:15;;;;;;;18.03;13.03;;;15.40;99.90;;;;;;4990986;28;20467;-90
2021/07/22 02:57:41;;;;;;;14.27;12.90;;;15.30;99.90;;;;;;4991119;28;20204;-90
2021/07/22 03:00:07;;;;;;;14.37;12.97;;;15.30;99.90;;;;;;4973751;28;20584;-89
2021/07/22 03:02:33;;;;;;;14.27;12.83;;;15.40;99.90;;;;;;4990796;28;20220;-92
2021/07/22 03:04:59;;;;;;;14.97;12.17;;;15.30;99.90;;;;;;4991127;28;20932;-89
2021/07/22 03:07:24;;;;;;;14.00;12.67;;;15.20;99.90;;;;;;4991488;28;20225;-89
2021/07/22 03:09:50;;;;;;;14.30;12.90;;;15.30;99.90;;;;;;4973605;28;20236;-89
2021/07/22 03:12:16;;;;;;;14.63;12.93;;;15.20;99.90;;;;;;4993499;28;20639;-89
2021/07/22 03:14:42;;;;;;;14.20;12.70;;;15.30;99.90;;;;;;4994600;28;20515;-91
2021/07/22 03:17:08;;;;;;;14.87;13.03;;;15.20;99.90;;;;;;4994774;28;20609;-89
2021/07/22 03:19:33;;;;;;;14.73;13.30;;;15.20;99.90;;;;;;4994718;28;20649;-91
2021/07/22 03:21:59;;;;;;;12.83;11.60;;;15.20;99.90;;;;;;4996051;28;20546;-90
2021/07/22 03:24:25;;;;;;;18.00;12.97;;;15.30;99.90;;;;;;4977980;28;20208;-90
2021/07/22 03:26:51;;;;;;;16.20;13.40;;;15.20;99.90;;;;;;4979240;28;20228;-90
2021/07/22 03:29:17;;;;;;;13.63;11.63;;;15.30;99.90;;;;;;4997671;28;20416;-89
2021/07/22 03:31:43;;;;;;;14.93;12.43;;;15.20;99.90;;;;;;4979364;28;20976;-90
2021/07/22 03:34:09;;;;;;;14.83;13.17;;;15.30;99.90;;;;;;4979338;28;20843;-90
2021/07/22 03:36:34;;;;;;;13.67;12.27;;;15.10;99.90;;;;;;4979611;28;20417;-90
2021/07/22 03:39:00;;;;;;;13.37;12.20;;;15.10;99.90;;;;;;4979440;28;20540;-90
2021/07/22 03:41:26;;;;;;;17.37;12.97;;;15.10;99.90;;;;;;4997448;28;20560;-91
2021/07/22 03:43:52;;;;;;;13.33;11.93;;;15.10;99.90;;;;;;4996749;28;20177;-90
2021/07/22 03:46:17;;;;;;;15.67;12.23;;;15.10;99.90;;;;;;4996542;28;20420;-90
2021/07/22 03:48:44;;;;;;;13.33;12.03;;;15.10;99.90;;;;;;4997169;28;20256;-88
2021/07/22 03:51:10;;;;;;;12.37;11.10;;;15.30;99.90;;;;;;4997260;28;20572;-90
2021/07/22 03:53:35;;;;;;;15.30;13.80;;;15.20;99.90;;;;;;4979236;28;20515;-90
2021/07/22 03:56:02;;;;;;;14.20;12.80;;;15.20;99.90;;;;;;4996428;28;20599;-90
2021/07/22 03:58:28;;;;;;;12.70;11.40;;;15.10;99.90;;;;;;4978732;28;20174;-89
2021/07/22 04:00:57;;;;;;;14.97;11.90;;;15.30;99.90;;;;;;4996840;28;20424;-88
2021/07/22 04:03:25;;;;;;;13.03;11.27;;;15.30;99.90;;;;;;4978899;28;20177;-90
2021/07/22 04:05:51;;;;;;;17.33;11.93;;;15.40;99.90;;;;;;4996699;28;20451;-90
2021/07/22 04:08:17;;;;;;;12.87;11.10;;;15.50;99.90;;;;;;4996832;28;20413;-89
2021/07/22 04:10:42;;;;;;;12.27;11.07;;;15.30;99.90;;;;;;4996349;28;20419;-90
2021/07/22 04:13:08;;;;;;;14.03;12.50;;;15.40;99.90;;;;;;4650682;28;10000954;-90
2021/07/22 04:15:34;;;;;;;13.23;11.93;;;15.30;99.90;;;;;;4977075;28;20169;-90
2021/07/22 04:17:59;;;;;;;12.53;11.33;;;15.30;99.90;;;;;;4993944;28;20490;-90
2021/07/22 04:20:27;;;;;;;12.57;11.30;;;15.40;99.90;;;;;;4976309;28;20180;-89
2021/07/22 04:22:56;;;;;;;12.97;11.43;;;15.50;99.90;;;;;;4993026;28;20201;-89
2021/07/22 04:25:21;;;;;;;15.17;12.50;;;15.40;99.90;;;;;;4994173;28;20409;-91
2021/07/22 04:27:47;;;;;;;12.30;11.10;;;15.60;99.90;;;;;;4993785;28;20744;-90
2021/07/22 04:30:13;;;;;;;13.27;11.90;;;15.70;99.90;;;;;;4994438;28;20636;-90
2021/07/22 04:32:38;;;;;;;13.10;12.00;;;15.90;99.90;;;;;;4976832;28;20201;-90
2021/07/22 04:35:07;;;;;;;12.30;11.00;;;15.80;99.90;;;;;;4976666;28;20460;-89
2021/07/22 04:37:34;;;;;;;12.47;11.37;;;15.90;99.90;;;;;;4995244;28;20158;-90
2021/07/22 04:39:59;;;;;;;18.23;11.80;;;16.00;99.90;;;;;;4994474;28;20428;-87
2021/07/22 04:42:25;;;;;;;12.10;10.80;;;15.80;99.90;;;;;;4995205;28;20409;-90
2021/07/22 04:44:50;;;;;;;13.10;11.80;;;15.90;99.90;;;;;;5006163;28;20196;-90
2021/07/22 04:47:16;;;;;;;12.37;11.20;;;15.90;99.90;;;;;;5005767;28;20217;-90
2021/07/22 04:49:41;;;;;;;12.83;11.40;;;16.00;99.90;;;;;;4997618;28;20173;-90
2021/07/22 04:52:07;;;;;;;11.90;10.80;;;16.10;99.90;;;;;;4979226;28;20169;-91
2021/07/22 04:54:33;;;;;;;12.73;11.13;;;16.30;99.90;;;;;;4996590;28;20296;-89
2021/07/22 04:56:58;;;;;;;12.17;10.93;;;16.30;99.90;;;;;;4996264;28;20173;-91
2021/07/22 04:59:25;;;;;;;11.40;10.40;;;16.40;99.90;;;;;;4985152;28;20169;-87
2021/07/22 05:01:50;;;;;;;13.07;11.77;;;16.80;99.90;;;;;;4982416;28;20177;-90
2021/07/22 05:04:18;;;;;;;12.80;11.50;;;16.60;99.90;;;;;;4997359;28;20505;-90
2021/07/22 05:06:44;;;;;;;14.10;11.17;;;16.80;99.90;;;;;;4996115;28;20258;-90
2021/07/22 05:09:10;;;;;;;12.53;11.23;;;16.90;99.90;;;;;;4995817;28;20416;-90
2021/07/22 05:11:36;;;;;;;14.43;11.93;;;16.80;99.90;;;;;;4978200;28;20932;-90
2021/07/22 05:14:01;;;;;;;17.30;11.57;;;16.90;99.90;;;;;;4996166;28;20468;-91
2021/07/22 05:16:27;;;;;;;14.00;11.97;;;17.00;99.90;;;;;;4997084;28;20617;-91
2021/07/22 05:18:53;;;;;;;15.40;12.80;;;17.10;99.90;;;;;;4979061;28;20232;-89
2021/07/22 05:21:19;;;;;;;12.70;11.07;;;17.00;99.90;;;;;;4996368;28;20173;-92
2021/07/22 05:23:45;;;;;;;14.13;12.53;;;17.10;99.90;;;;;;4979957;28;20225;-91
2021/07/22 05:26:11;;;;;;;19.30;12.50;;;17.30;99.90;;;;;;4995609;28;20508;-89
2021/07/22 05:28:37;;;;;;;14.80;13.03;;;17.30;99.90;;;;;;4980190;28;20177;-91
2021/07/22 05:31:10;;;;;;;18.67;10.43;;;17.50;99.90;;;;;;4979924;28;20474;-91
2021/07/22 05:33:37;;;;;;;26.40;12.37;;;17.60;99.90;;;;;;4977707;28;20993;-89
2021/07/22 05:36:04;;;;;;;18.07;12.10;;;17.50;99.90;;;;;;4995934;28;20432;-91
2021/07/22 05:38:31;;;;;;;31.30;13.13;;;17.60;99.90;;;;;;4992599;28;20436;-90
2021/07/22 05:41:11;;;;;;;22.77;12.27;;;17.60;99.90;;;;;;4981629;28;20424;-91
2021/07/22 05:43:37;;;;;;;22.57;12.30;;;17.60;98.30;;;;;;4978206;28;20426;-90
2021/07/22 05:46:12;;;;;;;14.93;11.90;;;17.60;99.90;;;;;;4980966;28;20518;-92
2021/07/22 05:48:38;;;;;;;18.17;12.40;;;17.70;98.10;;;;;;4995745;28;20501;-91
2021/07/22 05:51:03;;;;;;;18.47;11.17;;;17.60;99.90;;;;;;5012337;28;20416;-90
2021/07/22 05:53:29;;;;;;;26.60;14.23;;;17.70;99.80;;;;;;4983320;28;20207;-91
2021/07/22 05:56:02;;;;;;;12.30;11.20;;;17.90;99.40;;;;;;4974699;28;20178;-92
2021/07/22 05:58:39;;;;;;;13.23;11.70;;;18.00;98.90;;;;;;4994956;28;20420;-92
2021/07/22 06:01:08;;;;;;;14.07;12.33;;;18.20;96.80;;;;;;4979045;28;20463;-90
2021/07/22 06:03:36;;;;;;;13.23;11.57;;;18.60;98.00;;;;;;4979096;28;20920;-93
2021/07/22 06:06:05;;;;;;;13.77;11.90;;;19.00;98.20;;;;;;4963407;28;20534;-93
2021/07/22 06:08:30;;;;;;;13.63;11.90;;;19.10;99.90;;;;;;4978157;28;20432;-90
2021/07/22 06:10:56;;;;;;;13.10;11.57;;;19.50;99.90;;;;;;4994938;28;20907;-92
2021/07/22 06:13:22;;;;;;;15.33;11.97;;;19.90;94.50;;;;;;4979025;28;20274;-92
2021/07/22 06:15:47;;;;;;;18.70;10.60;;;20.40;91.20;;;;;;4996060;28;20170;-89
2021/07/22 06:18:13;;;;;;;10.83;9.73;;;21.00;93.20;;;;;;4978660;28;20204;-92
2021/07/22 06:20:39;;;;;;;14.03;10.70;;;21.50;80.50;;;;;;4979026;28;20201;-92
2021/07/22 06:23:05;;;;;;;10.70;8.77;;;21.90;76.30;;;;;;4995659;28;20169;-91
2021/07/22 06:25:30;;;;;;;10.27;9.40;;;22.00;74.50;;;;;;4978604;28;20773;-90
2021/07/22 06:27:57;;;;;;;12.93;9.23;;;22.00;74.60;;;;;;4979712;28;20194;-90
2021/07/22 06:30:23;;;;;;;10.43;9.20;;;22.30;72.60;;;;;;4980579;28;20177;-93
2021/07/22 06:32:48;;;;;;;10.27;9.47;;;22.70;68.60;;;;;;4980104;28;20461;-93
2021/07/22 06:35:14;;;;;;;10.80;9.73;;;22.80;60.00;;;;;;4978684;28;20650;-90
2021/07/22 06:37:43;;;;;;;11.33;9.63;;;23.20;57.30;;;;;;4977733;28;20253;-92
2021/07/22 06:40:09;;;;;;;19.37;10.77;;;23.60;63.30;;;;;;4978122;28;20177;-92
2021/07/22 06:42:34;;;;;;;12.70;9.37;;;24.00;57.50;;;;;;4994444;28;20420;-91
2021/07/22 06:45:00;;;;;;;11.60;10.10;;;24.20;59.70;;;;;;4978553;28;20422;-93
2021/07/22 06:47:25;;;;;;;11.33;10.10;;;24.40;56.80;;;;;;4983548;28;20652;-91
2021/07/22 06:49:51;;;;;;;9.93;9.07;;;24.70;63.70;;;;;;4982776;28;20648;-93
2021/07/22 06:52:17;;;;;;;11.40;10.23;;;24.80;63.20;;;;;;4981508;28;20204;-92
2021/07/22 06:54:42;;;;;;;9.60;8.70;;;24.70;63.80;;;;;;4999520;28;20648;-91
2021/07/22 06:57:08;;;;;;;10.83;9.87;;;24.70;63.80;;;;;;4982416;28;20176;-91
2021/07/22 06:59:34;;;;;;;12.63;9.20;;;24.50;64.10;;;;;;5001079;28;20188;-92
2021/07/22 07:02:00;;;;;;;9.73;8.83;;;24.10;80.60;;;;;;4997935;28;20173;-92
2021/07/22 07:04:26;;;;;;;10.30;9.40;;;24.00;66.80;;;;;;5007406;28;20173;-91
2021/07/22 07:06:53;;;;;;;11.90;9.97;;;23.70;60.30;;;;;;4989584;28;20829;-92
2021/07/22 07:09:18;;;;;;;16.13;10.07;;;23.50;73.10;;;;;;4993898;28;20182;-87
2021/07/22 07:11:44;;;;;;;12.30;10.13;;;23.70;73.10;;;;;;5012290;28;20447;-91
2021/07/22 07:14:14;;;;;;;14.70;9.63;;;23.40;70.50;;;;;;4995741;28;20224;-89
2021/07/22 07:16:43;;;;;;;28.53;11.70;;;24.20;68.90;;;;;;4960953;28;20269;-92
2021/07/22 07:19:09;;;;;;;19.60;10.70;;;23.30;69.70;;;;;;4993208;28;20424;-94
2021/07/22 07:21:37;;;;;;;10.67;9.47;;;23.40;69.60;;;;;;4996162;28;20413;-92
2021/07/22 07:24:07;;;;;;;13.27;10.40;;;23.60;68.20;;;;;;4995149;28;20480;-92
2021/07/22 07:26:33;;;;;;;10.10;9.20;;;23.70;65.00;;;;;;4980616;28;20428;-90
2021/07/22 07:29:05;;;;;;;13.20;9.10;;;23.80;65.70;;;;;;4998890;28;20478;-92
2021/07/22 07:31:31;;;;;;;10.70;9.80;;;23.90;65.00;;;;;;4663577;28;9999680;-90
2021/07/22 07:33:56;;;;;;;12.03;9.83;;;24.10;64.70;;;;;;5010250;28;20893;-91
2021/07/22 07:36:22;;;;;;;10.20;9.30;;;24.20;62.70;;;;;;4990253;28;20200;-93
2021/07/22 07:38:50;;;;;;;9.73;8.90;;;24.30;63.30;;;;;;4989687;28;20189;-90
2021/07/22 07:41:16;;;;;;;11.23;10.00;;;24.80;55.50;;;;;;4992425;28;20216;-91
2021/07/22 07:43:43;;;;;;;10.77;9.87;;;25.50;54.50;;;;;;5012343;28;20432;-95
2021/07/22 07:46:09;;;;;;;10.57;9.53;;;25.70;55.20;;;;;;4993782;28;20199;-93
2021/07/22 07:48:35;;;;;;;11.60;10.07;;;26.10;65.80;;;;;;5008662;28;20421;-91
2021/07/22 07:51:05;;;;;;;10.90;9.73;;;25.80;59.60;;;;;;4993966;28;20438;-89
2021/07/22 07:53:31;;;;;;;11.13;10.10;;;25.50;58.10;;;;;;5234046;23;20208;-90
2021/07/22 07:56:03;;;;;;;12.80;11.30;;;25.30;56.10;;;;;;4998236;28;20432;-92
2021/07/22 07:58:31;;;;;;;10.47;9.60;;;25.10;62.00;;;;;;5012112;28;20408;-91
2021/07/22 08:00:57;;;;;;;11.10;10.30;;;25.70;64.50;;;;;;5012683;28;20504;-92
2021/07/22 08:03:30;;;;;;;10.40;9.43;;;25.10;61.80;;;;;;5015856;28;20508;-93
2021/07/22 08:06:01;;;;;;;10.80;9.80;;;25.10;59.80;;;;;;5088111;23;20240;-92
2021/07/22 08:08:29;;;;;;;13.50;11.50;;;25.10;61.00;;;;;;5048265;23;20588;-91
2021/07/22 08:10:59;;;;;;;17.07;10.87;;;24.80;55.50;;;;;;4972653;28;20418;-88
2021/07/22 08:13:34;;;;;;;11.27;10.27;;;24.60;57.30;;;;;;4975476;28;20520;-90
2021/07/22 08:16:03;;;;;;;10.83;9.90;;;24.90;56.50;;;;;;4976897;28;20390;-90
2021/07/22 08:18:29;;;;;;;10.60;9.60;;;25.20;55.10;;;;;;4959198;28;20450;-90
2021/07/22 08:21:30;;;;;;;10.47;9.37;;;25.50;55.30;;;;;;4959893;28;20482;-91
2021/07/22 08:23:56;;;;;;;11.17;10.07;;;25.80;54.20;;;;;;4969407;28;20546;-89
2021/07/22 08:26:21;;;;;;;11.83;10.63;;;25.30;53.80;;;;;;4967746;28;20418;-90
2021/07/22 08:28:47;;;;;;;11.63;10.70;;;25.70;53.60;;;;;;4966996;28;20186;-92
2021/07/22 08:31:13;;;;;;;11.50;10.50;;;26.00;47.50;;;;;;4960857;28;20430;-93
2021/07/22 08:33:39;;;;;;;11.50;10.47;;;27.20;50.40;;;;;;4963236;28;20213;-92
2021/07/22 08:36:04;;;;;;;11.73;10.63;;;26.60;49.00;;;;;;4968517;28;20189;-91
2021/07/22 08:38:30;;;;;;;12.80;11.60;;;28.20;53.60;;;;;;4972883;28;20166;-93
2021/07/22 08:40:56;;;;;;;12.47;11.27;;;27.70;46.30;;;;;;4971430;28;20505;-92
2021/07/22 08:43:31;;;;;;;12.33;11.17;;;27.40;45.30;;;;;;4969239;28;20175;-93
2021/07/22 08:46:00;;;;;;;14.00;12.60;;;30.40;46.60;;;;;;4962341;28;20498;-91
2021/07/22 08:48:27;;;;;;;13.48;12.13;;;28.40;45.80;;;;;;4617352;28;9999936;-87
2021/07/22 08:50:53;;;;;;;16.33;11.60;;;27.60;44.90;;;;;;4959715;28;20179;-90
2021/07/22 08:53:22;;;;;;;15.53;11.27;;;28.00;44.50;;;;;;4959899;28;20535;-91
2021/07/22 08:55:50;;;;;;;12.00;10.90;;;29.60;48.60;;;;;;4961675;28;20442;-90
2021/07/22 08:58:16;;;;;;;12.67;11.03;;;29.50;47.90;;;;;;4958783;28;20427;-89
2021/07/22 09:00:42;;;;;;;17.17;11.87;;;30.00;47.90;;;;;;4977637;28;20443;-92
2021/07/22 09:03:12;;;;;;;11.80;10.70;;;30.20;47.40;;;;;;4979831;28;20522;-91
2021/07/22 09:05:39;;;;;;;12.33;11.17;;;30.30;49.70;;;;;;4980151;28;20794;-92
2021/07/22 09:08:05;;;;;;;11.53;10.60;;;30.30;49.40;;;;;;4978855;28;20485;-91
2021/07/22 09:10:31;;;;;;;13.17;11.77;;;30.60;44.80;;;;;;4980308;28;20779;-90
2021/07/22 09:12:56;;;;;;;15.60;12.00;;;31.10;51.40;;;;;;4981324;28;20212;-92
2021/07/22 09:15:25;;;;;;;13.90;12.60;;;31.40;52.50;;;;;;4979331;28;20252;-92
2021/07/22 09:17:52;;;;;;;12.80;11.80;;;31.90;55.80;;;;;;4991462;28;20166;-92
2021/07/22 09:20:26;;;;;;;13.50;12.20;;;32.10;55.40;;;;;;5047029;23;20599;-89
2021/07/22 09:22:53;;;;;;;13.40;12.40;;;;;;;;;;5092060;23;20906;-92
2021/07/22 09:25:35;;;;;;;12.37;11.47;;;32.10;37.00;;;;;;4995203;28;20477;-93
2021/07/22 09:28:06;;;;;;;12.47;11.50;;;32.50;37.30;;;;;;5011754;28;20410;-90
2021/07/22 09:30:34;;;;;;;14.00;12.80;;;;;;;;;;5012327;28;20423;-92
2021/07/22 09:33:00;;;;;;;13.07;11.97;;;31.70;37.00;;;;;;5011049;28;20486;-91
2021/07/22 09:35:29;;;;;;;13.50;12.50;;;32.10;39.20;;;;;;5013451;28;20431;-94
2021/07/22 09:37:58;;;;;;;13.60;12.33;;;34.80;37.30;;;;;;5012444;28;20420;-91
2021/07/22 09:40:29;;;;;;;14.13;13.03;;;32.90;38.30;;;;;;5011181;28;20423;-93
2021/07/22 09:42:59;;;;;;;12.43;11.63;;;33.40;38.70;;;;;;5014085;28;20412;-92
2021/07/22 09:45:37;;;;;;;12.83;11.83;;;33.60;38.80;;;;;;5006419;28;20426;-88
2021/07/22 09:48:39;;;;;;;15.47;13.97;;;33.90;34.50;;;;;;5013095;28;20407;-91
2021/07/22 09:53:40;;;;;;;15.17;13.97;;;34.30;32.50;;;;;;4991617;28;20495;-90
2021/07/22 09:56:09;;;;;;;14.70;13.07;;;34.00;34.00;;;;;;4977598;28;20445;-90
2021/07/22 09:58:37;;;;;;;14.87;13.60;;;34.60;34.50;;;;;;5047407;23;20225;-90
2021/07/22 10:01:12;;;;;;;16.13;14.70;;;36.20;36.20;;;;;;5143489;22;20486;-90
2021/07/22 10:03:49;;;;;;;14.00;13.00;;;35.90;34.20;;;;;;5015563;28;20430;-90
2021/07/22 10:06:18;;;;;;;16.77;15.20;;;36.90;34.20;;;;;;5031817;28;20910;-91
2021/07/22 10:08:48;;;;;;;15.03;13.93;;;34.90;33.50;;;;;;5031822;28;20435;-90
2021/07/22 10:11:16;;;;;;;15.00;13.77;;;35.80;36.70;;;;;;5032493;28;20434;-89
2021/07/22 10:13:44;;;;;;;12.97;11.63;;;34.00;34.00;;;;;;5030943;23;20217;-90
2021/07/22 10:16:12;;;;;;;12.33;11.33;;;36.40;33.70;;;;;;4991172;28;20787;-90
2021/07/22 10:19:03;;;;;;;16.90;12.50;;;34.50;32.20;;;;;;4993859;28;20418;-91
2021/07/22 10:21:38;;;;;;;13.43;12.07;;;33.60;33.40;;;;;;4975951;28;20449;-89
2021/07/22 10:24:09;;;;;;;13.30;11.93;;;34.00;33.90;;;;;;4975860;28;20432;-92
2021/07/22 10:26:40;;;;;;;12.13;11.10;;;34.30;32.80;;;;;;5061923;23;20496;-91
2021/07/22 10:29:06;;;;;;;14.77;13.37;;;34.70;34.70;;;;;;5184065;23;20485;-89
2021/07/22 10:31:45;;;;;;;14.90;13.70;;;37.30;34.60;;;;;;4975550;28;20429;-92
2021/07/22 10:34:19;;;;;;;13.10;11.57;;;36.80;34.60;;;;;;5042147;23;20532;-93
2021/07/22 10:36:49;;;;;;;15.13;13.67;;;34.70;32.80;;;;;;4990499;28;20405;-91
2021/07/22 10:39:15;;;;;;;16.47;15.07;;;34.70;32.50;;;;;;4974049;28;20481;-93
2021/07/22 10:41:41;;;;;;;17.23;15.83;;;35.40;33.60;;;;;;4975915;28;20419;-94
2021/07/22 10:44:32;;;;;;;18.80;17.03;;;37.70;36.30;;;;;;5110388;22;20494;-89
2021/07/22 10:47:04;;;;;;;20.27;17.60;;;34.50;34.90;;;;;;5033412;28;20399;-88
2021/07/22 10:49:38;;;;;;;19.33;17.43;;;33.00;34.40;;;;;;5015694;28;20492;-88
2021/07/22 10:52:04;;;;;;;16.97;15.20;;;33.70;34.50;;;;;;5014967;28;20426;-87
2021/07/22 10:54:48;;;;;;;15.30;13.90;;;33.70;33.50;;;;;;5017748;28;20477;-88
2021/07/22 10:57:36;;;;;;;14.50;13.40;;;34.50;32.70;;;;;;5031551;28;20426;-88
2021/07/22 11:00:04;;;;;;;17.60;15.90;;;34.90;41.30;;;;;;5016179;28;20447;-88
2021/07/22 11:02:44;;;;;;;15.80;14.60;;;35.10;31.80;;;;;;5032970;28;20410;-86
2021/07/22 11:05:31;;;;;;;17.23;15.50;;;35.10;32.20;;;;;;5016784;28;20480;-88
2021/07/22 11:08:15;;;;;;;25.13;16.73;;;;;;;;;;5034420;28;20458;-89
2021/07/22 11:10:52;;;;;;;17.13;15.77;;;36.10;31.60;;;;;;4670650;28;10000445;-88
2021/07/22 11:13:36;;;;;;;17.97;16.27;;;36.30;31.30;;;;;;5014118;28;20208;-87
2021/07/22 11:16:22;;;;;;;20.20;18.27;;;36.10;31.80;;;;;;5030754;28;20422;-89
2021/07/22 11:18:48;;;;;;;18.20;16.30;;;36.60;30.80;;;;;;5030593;28;20790;-88
2021/07/22 11:21:23;;;;;;;17.00;15.60;;;36.50;33.40;;;;;;5031228;28;20414;-86
2021/07/22 11:24:04;;;;;;;18.27;16.70;;;36.60;31.40;;;;;;5031254;28;20440;-89
2021/07/22 11:26:35;;;;;;;18.53;17.03;;;36.00;31.30;;;;;;5015541;28;20437;-88
2021/07/22 11:29:06;;;;;;;19.30;17.60;;;35.40;31.90;;;;;;5015706;28;20411;-89
2021/07/22 11:31:41;;;;;;;17.13;15.63;;;36.70;31.40;;;;;;5023369;28;20411;-89
2021/07/22 11:34:07;;;;;;;17.33;15.87;;;37.60;30.70;;;;;;5001209;28;20470;-87
2021/07/22 11:36:35;;;;;;;17.57;16.17;;;;;;;;;;5019722;28;20445;-87
2021/07/22 11:39:02;;;;;;;19.30;16.30;;;;;;;;;;5023305;28;20480;-90
2021/07/22 11:41:27;;;;;;;14.73;13.73;;;38.30;29.30;;;;;;5023958;28;20533;-91
2021/07/22 11:43:55;;;;;;;15.87;14.67;;;38.30;29.70;;;;;;5025246;28;20498;-92
2021/07/22 11:46:40;;;;;;;17.60;16.30;;;37.80;29.90;;;;;;5024283;28;20176;-93
2021/07/22 11:49:18;;;;;;;16.37;14.90;;;37.30;29.90;;;;;;5024277;28;20560;-92
2021/07/22 11:51:49;;;;;;;15.90;14.70;;;36.80;30.50;;;;;;5041739;28;20403;-93
2021/07/22 11:54:21;;;;;;;20.27;18.30;;;36.70;31.00;;;;;;5021132;28;20419;-93
2021/07/22 11:56:50;;;;;;;18.63;17.00;;;36.50;31.00;;;;;;5025134;28;20430;-94
2021/07/22 11:59:16;;;;;;;17.10;15.70;;;36.70;30.90;;;;;;5024924;28;20419;-90
2021/07/22 12:01:53;;;;;;;19.93;18.33;;;36.10;43.20;;;;;;5028252;28;20429;-93
2021/07/22 12:04:33;;;;;;;20.67;19.07;;;34.90;31.30;;;;;;5048651;28;20298;-93
2021/07/22 12:07:11;;;;;;;20.30;18.60;;;34.80;42.70;;;;;;5033724;28;20445;-92
2021/07/22 12:09:53;;;;;;;19.33;17.80;;;35.00;33.60;;;;;;5032390;28;20410;-93
2021/07/22 12:12:23;;;;;;;20.37;18.53;;;34.50;44.10;;;;;;5036041;28;20419;-92
2021/07/22 12:14:50;;;;;;;24.67;22.47;;;33.40;34.00;;;;;;5037559;28;20395;-92
2021/07/22 12:17:20;;;;;;;23.80;21.80;;;33.00;34.40;;;;;;5038249;28;20482;-90
2021/07/22 12:19:47;;;;;;;23.27;19.10;;;32.20;40.60;;;;;;5022375;28;20422;-90
2021/07/22 12:22:40;;;;;;;33.70;30.87;;;33.00;40.00;;;;;;5038244;28;20426;-91
2021/07/22 12:25:16;;;;;;;36.43;32.83;;;33.40;38.20;;;;;;5036767;28;20514;-92
2021/07/22 12:30:54;;;;;;;23.20;20.97;;;32.50;41.20;;;;;;5035152;28;20470;-94
2021/07/22 12:35:53;;;;;;;22.93;20.50;;;29.80;39.50;;;;;;5013897;28;20480;-91
2021/07/22 12:38:25;;;;;;;21.37;19.40;;;29.00;38.80;;;;;;5145198;23;20506;-92
2021/07/22 12:41:26;;;;;;;22.20;18.77;;;30.70;38.70;;;;;;5054564;28;20411;-94
2021/07/22 12:43:55;;;;;;;18.50;16.90;;;32.20;42.90;;;;;;5015745;28;20980;-88
2021/07/22 12:46:21;;;;;;;20.17;18.17;;;30.70;42.00;;;;;;5028403;28;20470;-89